createdAt,value
2022-10-13T00:00:53.093Z,100019.91
2022-10-13T00:03:56.179Z,100019.22
2022-10-13T00:06:58.913Z,100012.88
2022-10-13T00:10:01.531Z,100017.94
2022-10-13T00:13:04.543Z,100011.59
2022-10-13T00:16:08.915Z,100012.88
2022-10-13T00:19:14.973Z,100023.41
2022-10-13T00:22:18.136Z,100027.63
2022-10-13T00:25:20.918Z,100017.38
2022-10-13T00:28:23.616Z,100026.94
2022-10-13T00:31:28.690Z,100017.38
2022-10-13T00:34:31.430Z,100017.22
2022-10-13T00:37:34.141Z,100020.03
2022-10-13T00:40:43.941Z,100020.28
2022-10-13T00:43:54.409Z,100026.75
2022-10-13T00:46:58.547Z,100024.38
2022-10-13T00:50:01.892Z,100028.00
2022-10-13T00:53:05.909Z,100020.97
2022-10-13T00:56:10.544Z,100019.56
2022-10-13T00:59:14.926Z,100013.41
2022-10-13T01:02:19.293Z,100018.72
2022-10-13T01:05:22.509Z,100024.19
2022-10-13T01:08:27.030Z,100019.22
2022-10-13T01:11:37.742Z,100020.22
2022-10-13T01:14:46.135Z,100023.47
2022-10-13T01:17:55.864Z,100027.56
2022-10-13T01:21:08.682Z,100029.41
2022-10-13T01:24:29.314Z,100033.16
2022-10-13T01:27:39.593Z,100030.50
2022-10-13T01:30:46.880Z,100031.47
2022-10-13T01:33:54.341Z,100024.56
2022-10-13T01:37:00.603Z,100030.28
2022-10-13T01:40:06.396Z,100024.25
2022-10-13T01:43:11.620Z,100023.13
2022-10-13T01:46:18.886Z,100020.31
2022-10-13T01:49:24.744Z,100018.63
2022-10-13T01:52:32.199Z,100023.28
2022-10-13T01:55:35.185Z,100033.94
2022-10-13T01:58:38.152Z,100019.63
2022-10-13T02:01:48.809Z,100031.56
2022-10-13T02:04:55.682Z,100029.84
2022-10-13T02:08:03.172Z,100030.56
2022-10-13T02:11:10.905Z,100026.22
2022-10-13T02:14:17.281Z,100029.00
2022-10-13T02:17:21.701Z,100035.06
2022-10-13T02:20:24.438Z,100037.13
2022-10-13T02:23:27.993Z,100039.09
2022-10-13T02:26:31.837Z,100034.84
2022-10-13T02:29:34.517Z,100045.66
2022-10-13T02:32:38.541Z,100045.53
2022-10-13T02:35:41.487Z,100045.09
2022-10-13T02:38:44.222Z,100037.94
2022-10-13T02:41:46.876Z,100045.22
2022-10-13T02:44:49.578Z,100039.88
2022-10-13T02:47:53.613Z,100040.00
2022-10-13T02:50:56.283Z,100043.28
2022-10-13T02:53:58.949Z,100045.09
2022-10-13T02:57:01.647Z,100054.94
2022-10-13T03:00:05.719Z,100048.00
2022-10-13T03:03:10.759Z,100041.84
2022-10-13T03:06:13.395Z,100042.81
2022-10-13T03:09:16.103Z,100049.69
2022-10-13T03:12:19.042Z,100055.88
2022-10-13T03:15:21.925Z,100052.66
2022-10-13T03:18:26.089Z,100050.97
2022-10-13T03:21:28.804Z,100062.34
2022-10-13T03:24:32.437Z,100061.50
2022-10-13T03:27:35.241Z,100058.69
2022-10-13T03:30:37.946Z,100058.25
2022-10-13T03:33:42.242Z,100062.72
2022-10-13T03:36:44.926Z,100064.53
2022-10-13T03:39:47.604Z,100070.72
2022-10-13T03:42:50.310Z,100063.69
2022-10-13T03:45:56.379Z,100067.63
2022-10-13T03:49:00.402Z,100067.72
2022-10-13T03:52:03.087Z,100070.38
2022-10-13T03:55:06.151Z,100070.38
2022-10-13T03:58:09.120Z,100068.59
2022-10-13T04:01:13.751Z,100072.22
2022-10-13T04:04:17.820Z,100075.84
2022-10-13T04:07:20.764Z,100069.69
2022-10-13T04:10:23.500Z,100070.53
2022-10-13T04:13:26.192Z,100079.63
2022-10-13T04:16:29.898Z,100081.94
2022-10-13T04:19:33.906Z,100083.84
2022-10-13T04:22:36.582Z,100078.53
2022-10-13T04:25:39.885Z,100084.84
2022-10-13T04:28:42.616Z,100089.47
2022-10-13T04:31:45.360Z,100083.28
2022-10-13T04:34:49.386Z,100085.09
2022-10-13T04:37:52.080Z,100084.13
2022-10-13T04:40:55.000Z,100082.44
2022-10-13T04:43:57.700Z,100090.03
2022-10-13T04:47:01.484Z,100083.84
2022-10-13T04:50:06.085Z,100085.69
2022-10-13T04:53:08.735Z,100089.19
2022-10-13T04:56:12.612Z,100094.28
2022-10-13T04:59:15.665Z,100095.38
2022-10-13T05:02:18.667Z,100092.31
2022-10-13T05:05:22.898Z,100095.97
2022-10-13T05:08:26.037Z,100102.84
2022-10-13T05:11:30.886Z,100103.13
2022-10-13T05:14:34.993Z,100109.16
2022-10-13T05:17:37.715Z,100112.53
2022-10-13T05:20:41.738Z,100114.34
2022-10-13T05:23:45.508Z,100117.88
2022-10-13T05:26:48.175Z,100115.34
2022-10-13T05:29:50.963Z,100120.66
2022-10-13T05:32:54.106Z,100118.13
2022-10-13T05:36:04.884Z,100118.59
2022-10-13T05:39:08.428Z,100122.97
2022-10-13T05:42:11.053Z,100127.88
2022-10-13T05:45:14.275Z,100128.63
2022-10-13T05:48:16.953Z,100131.16
2022-10-13T05:51:23.477Z,100127.50
2022-10-13T05:54:30.163Z,100139.16
2022-10-13T05:57:34.448Z,100142.16
2022-10-13T06:00:37.330Z,100142.16
2022-10-13T06:03:42.076Z,100137.66
2022-10-13T06:06:46.221Z,100143.78
2022-10-13T06:09:49.721Z,100147.66
2022-10-13T06:12:52.485Z,100151.53
2022-10-13T06:15:55.136Z,100139.41
2022-10-13T06:18:57.819Z,100144.00
2022-10-13T06:22:03.770Z,100150.69
2022-10-13T06:25:07.567Z,100145.41
2022-10-13T06:28:10.286Z,100148.28
2022-10-13T06:31:13.148Z,100142.94
2022-10-13T06:34:15.927Z,100153.13
2022-10-13T06:37:24.637Z,100158.19
2022-10-13T06:40:29.038Z,100155.44
2022-10-13T06:43:38.881Z,100151.88
2022-10-13T06:46:42.434Z,100156.88
2022-10-13T06:49:45.166Z,100153.41
2022-10-13T06:52:49.168Z,100148.97
2022-10-13T06:55:52.707Z,100154.19
2022-10-13T06:58:55.572Z,100152.19
2022-10-13T07:01:58.277Z,100161.69
2022-10-13T07:05:00.925Z,100154.13
2022-10-13T07:08:05.112Z,100157.38
2022-10-13T07:11:14.562Z,100151.63
2022-10-13T07:14:18.538Z,100153.69
2022-10-13T07:17:21.746Z,100153.53
2022-10-13T07:20:25.852Z,100149.91
2022-10-13T07:23:30.328Z,100149.06
2022-10-13T07:26:34.036Z,100151.63
2022-10-13T07:29:36.858Z,100149.66
2022-10-13T07:32:42.005Z,100155.84
2022-10-13T07:35:44.805Z,100147.81
2022-10-13T07:38:48.924Z,100153.88
2022-10-13T07:41:51.576Z,100147.13
2022-10-13T07:44:54.292Z,100150.50
2022-10-13T07:47:57.222Z,100152.19
2022-10-13T07:50:59.952Z,100146.13
2022-10-13T07:54:04.006Z,100149.81
2022-10-13T07:57:06.652Z,100146.31
2022-10-13T08:00:10.552Z,100144.63
2022-10-13T08:03:13.255Z,100141.13
2022-10-13T08:06:15.999Z,100138.44
2022-10-13T08:09:20.115Z,100138.16
2022-10-13T08:12:22.973Z,100137.19
2022-10-13T08:15:25.844Z,100139.84
2022-10-13T08:18:28.928Z,100135.97
2022-10-13T08:24:55.893Z,100141.28
2022-10-13T08:28:00.636Z,100142.69
2022-10-13T08:31:03.580Z,100136.53
2022-10-13T08:34:06.404Z,100151.03
2022-10-13T08:37:13.672Z,100145.44
2022-10-13T08:40:20.492Z,100141.38
2022-10-13T08:43:24.428Z,100134.34
2022-10-13T08:46:29.649Z,100135.00
2022-10-13T08:49:32.427Z,100136.75
2022-10-13T08:52:45.263Z,100137.41
2022-10-13T08:55:52.037Z,100136.22
2022-10-13T08:58:56.704Z,100138.25
2022-10-13T09:01:59.990Z,100143.72
2022-10-13T09:05:04.499Z,100143.59
2022-10-13T09:08:14.818Z,100137.69
2022-10-13T09:11:18.933Z,100131.13
2022-10-13T09:14:23.061Z,100129.69
2022-10-13T09:17:27.419Z,100131.53
2022-10-13T09:20:30.097Z,100129.50
2022-10-13T09:23:32.745Z,100129.50
2022-10-13T09:26:40.091Z,100122.53
2022-10-13T09:29:43.605Z,100131.47
2022-10-13T09:32:46.255Z,100130.88
2022-10-13T09:35:49.791Z,100137.97
2022-10-13T09:39:07.272Z,100125.09
2022-10-13T09:42:20.487Z,100128.94
2022-10-13T09:45:25.236Z,100124.97
2022-10-13T09:48:28.684Z,100118.00
2022-10-13T09:51:36.290Z,100120.53
2022-10-13T09:54:42.868Z,100120.44
2022-10-13T09:57:49.067Z,100119.53
2022-10-13T10:01:10.356Z,100115.03
2022-10-13T10:04:15.468Z,100118.53
2022-10-13T10:07:21.842Z,100119.75
2022-10-13T10:10:30.108Z,100115.94
2022-10-13T10:13:34.215Z,100115.41
2022-10-13T10:16:40.029Z,100119.34
2022-10-13T10:19:50.426Z,100114.84
2022-10-13T10:22:58.006Z,100110.09
2022-10-13T10:26:02.492Z,100110.91
2022-10-13T10:29:18.858Z,100105.13
2022-10-13T10:32:27.554Z,100102.06
2022-10-13T10:35:37.754Z,100102.19
2022-10-13T10:38:43.193Z,100095.69
2022-10-13T10:41:51.385Z,100108.25
2022-10-13T10:44:56.156Z,100098.00
2022-10-13T10:48:00.918Z,100099.63
2022-10-13T10:51:06.459Z,100100.59
2022-10-13T10:54:18.364Z,100111.38
2022-10-13T10:57:27.771Z,100100.72
2022-10-13T11:00:35.058Z,100100.78
2022-10-13T11:03:41.809Z,100103.97
2022-10-13T11:06:44.416Z,100098.53
2022-10-13T11:10:01.925Z,100097.00
2022-10-13T11:13:21.001Z,100091.75
2022-10-13T11:16:28.625Z,100097.84
2022-10-13T11:19:33.019Z,100093.25
2022-10-13T11:22:35.683Z,100095.47
2022-10-13T11:25:40.528Z,100103.22
2022-10-13T11:28:46.401Z,100090.19
2022-10-13T11:31:52.760Z,100089.81
2022-10-13T11:34:58.801Z,100090.63
2022-10-13T11:38:12.661Z,100095.91
2022-10-13T11:41:22.221Z,100098.66
2022-10-13T11:47:53.994Z,100089.69
2022-10-13T11:51:05.039Z,100094.09
2022-10-13T11:54:14.693Z,100088.22
2022-10-13T11:57:21.772Z,100082.44
2022-10-13T12:00:24.551Z,100080.41
2022-10-13T12:03:30.067Z,100081.53
2022-10-13T12:06:34.469Z,100084.59
2022-10-13T12:09:48.253Z,100076.19
2022-10-13T12:12:51.418Z,100081.25
2022-10-13T12:16:03.151Z,100084.03
2022-10-13T12:19:20.098Z,100079.56
2022-10-13T12:22:23.307Z,100084.88
2022-10-13T12:25:27.997Z,100078.31
2022-10-13T12:28:31.924Z,100082.97
2022-10-13T12:31:40.735Z,100085.13
2022-10-13T12:34:47.049Z,100073.06
2022-10-13T12:37:50.062Z,100068.56
2022-10-13T12:40:54.524Z,100074.22
2022-10-13T12:43:59.951Z,100076.78
2022-10-13T12:47:05.450Z,100075.91
2022-10-13T12:50:38.465Z,100081.25
2022-10-13T12:53:42.772Z,100081.06
2022-10-13T12:56:45.653Z,100073.13
2022-10-13T12:59:48.431Z,100078.94
2022-10-13T13:02:52.529Z,100082.59
2022-10-13T13:06:08.399Z,100084.03
2022-10-13T13:09:22.039Z,100084.28
2022-10-13T13:12:28.117Z,100084.19
2022-10-13T13:15:33.724Z,100080.91
2022-10-13T13:18:39.741Z,100084.66
2022-10-13T13:21:42.570Z,100078.16
2022-10-13T13:24:47.118Z,100079.84
2022-10-13T13:27:49.924Z,100085.47
2022-10-13T13:30:52.588Z,100077.91
2022-10-13T13:33:55.338Z,100075.50
2022-10-13T13:36:58.017Z,100077.44
2022-10-13T13:40:02.471Z,100077.53
2022-10-13T13:43:05.216Z,100084.13
2022-10-13T13:46:08.783Z,100077.53
2022-10-13T13:49:12.642Z,100085.94
2022-10-13T13:52:15.626Z,100075.13
2022-10-13T13:55:19.740Z,100072.78
2022-10-13T13:58:22.465Z,100071.25
2022-10-13T14:01:25.840Z,100080.69
2022-10-13T14:04:28.671Z,100078.69
2022-10-13T14:07:31.400Z,100077.72
2022-10-13T14:10:35.855Z,100072.94
2022-10-13T14:13:38.509Z,100083.06
2022-10-13T14:16:41.860Z,100076.28
2022-10-13T14:19:44.603Z,100078.94
2022-10-13T14:22:47.294Z,100076.72
2022-10-13T14:25:51.320Z,100071.97
2022-10-13T14:28:53.991Z,100078.00
2022-10-13T14:31:56.823Z,100070.44
2022-10-13T14:34:59.628Z,100075.59
2022-10-13T14:38:02.360Z,100081.75
2022-10-13T14:41:07.325Z,100085.72
2022-10-13T14:44:13.605Z,100082.75
2022-10-13T14:47:16.440Z,100086.53
2022-10-13T14:50:19.242Z,100094.34
2022-10-13T14:53:21.919Z,100097.06
2022-10-13T14:56:26.906Z,100101.13
2022-10-13T14:59:29.912Z,100095.22
2022-10-13T15:02:32.627Z,100098.13
2022-10-13T15:05:35.337Z,100099.69
2022-10-13T15:08:37.993Z,100100.41
2022-10-13T15:11:42.053Z,100108.44
2022-10-13T15:14:44.802Z,100118.38
2022-10-13T15:17:47.764Z,100103.47
2022-10-13T15:20:50.890Z,100100.56
2022-10-13T15:23:53.568Z,100108.69
2022-10-13T15:26:57.616Z,100103.63
2022-10-13T15:30:00.808Z,100104.06
2022-10-13T15:33:03.798Z,100112.31
2022-10-13T15:36:06.666Z,100112.19
2022-10-13T15:39:10.554Z,100106.91
2022-10-13T15:42:14.670Z,100112.09
2022-10-13T15:45:17.870Z,100112.06
2022-10-13T15:48:20.563Z,100107.84
2022-10-13T15:51:24.561Z,100109.66
2022-10-13T15:54:27.238Z,100112.75
2022-10-13T15:57:31.294Z,100115.38
2022-10-13T16:00:34.061Z,100110.50
2022-10-13T16:03:36.860Z,100111.34
2022-10-13T16:06:40.161Z,100113.47
2022-10-13T16:09:42.852Z,100126.69
2022-10-13T16:12:49.673Z,100110.22
2022-10-13T16:16:02.698Z,100118.16
2022-10-13T16:19:08.396Z,100113.44
2022-10-13T16:22:13.676Z,100119.47
2022-10-13T16:25:17.147Z,100117.66
2022-10-13T16:28:21.233Z,100118.78
2022-10-13T16:31:24.003Z,100127.38
2022-10-13T16:34:26.908Z,100116.97
2022-10-13T16:37:29.632Z,100123.00
2022-10-13T16:40:32.548Z,100115.41
2022-10-13T16:43:36.967Z,100119.84
2022-10-13T16:46:40.217Z,100117.66
2022-10-13T16:49:43.379Z,100120.19
2022-10-13T16:52:47.462Z,100121.53
2022-10-13T16:55:50.229Z,100121.91
2022-10-13T16:58:57.133Z,100114.56
2022-10-13T17:02:01.128Z,100114.13
2022-10-13T17:05:03.926Z,100123.00
2022-10-13T17:08:07.698Z,100115.81
2022-10-13T17:11:11.522Z,100119.38
2022-10-13T17:14:15.988Z,100123.84
2022-10-13T17:17:19.155Z,100130.06
2022-10-13T17:20:22.091Z,100130.31
2022-10-13T17:23:26.391Z,100123.84
2022-10-13T17:26:29.143Z,100128.63
2022-10-13T17:29:34.520Z,100123.66
2022-10-13T17:32:39.790Z,100122.66
2022-10-13T17:35:42.447Z,100122.94
2022-10-13T17:38:45.384Z,100121.81
2022-10-13T17:41:48.505Z,100124.78
2022-10-13T17:44:52.591Z,100128.44
2022-10-13T17:47:58.678Z,100126.03
2022-10-13T17:51:02.661Z,100133.78
2022-10-13T17:54:07.468Z,100123.50
2022-10-13T17:57:12.949Z,100130.22
2022-10-13T18:00:18.509Z,100133.03
2022-10-13T18:03:21.573Z,100139.81
2022-10-13T18:06:24.376Z,100133.34
2022-10-13T18:09:28.228Z,100128.84
2022-10-13T18:12:31.102Z,100142.19
2022-10-13T18:15:38.720Z,100142.47
2022-10-13T18:18:43.757Z,100143.56
2022-10-13T18:21:46.865Z,100138.97
2022-10-13T18:24:56.040Z,100145.84
2022-10-13T18:28:01.000Z,100146.53
2022-10-13T18:31:06.888Z,100139.66
2022-10-13T18:34:11.879Z,100137.97
2022-10-13T18:37:15.825Z,100145.16
2022-10-13T18:40:18.977Z,100139.22
2022-10-13T18:43:22.895Z,100148.91
2022-10-13T18:46:27.058Z,100145.41
2022-10-13T18:49:31.787Z,100148.91
2022-10-13T18:52:34.465Z,100144.41
2022-10-13T18:55:37.350Z,100138.38
2022-10-13T18:58:42.135Z,100152.56
2022-10-13T19:01:46.560Z,100146.53
2022-10-13T19:04:49.248Z,100150.34
2022-10-13T19:07:52.447Z,100145.16
2022-10-13T19:10:56.570Z,100150.19
2022-10-13T19:13:59.593Z,100151.19
2022-10-13T19:17:03.966Z,100153.72
2022-10-13T19:20:10.661Z,100152.03
2022-10-13T19:23:15.599Z,100153.16
2022-10-13T19:26:19.723Z,100147.09
2022-10-13T19:29:22.493Z,100152.47
2022-10-13T19:32:26.583Z,100146.09
2022-10-13T19:35:29.741Z,100152.28
2022-10-13T19:38:32.439Z,100153.84
2022-10-13T19:41:41.235Z,100151.75
2022-10-13T19:44:44.033Z,100154.97
2022-10-13T19:47:48.557Z,100148.91
2022-10-13T19:50:51.238Z,100154.13
2022-10-13T19:53:53.927Z,100162.06
2022-10-13T19:56:56.669Z,100149.66
2022-10-13T19:59:59.314Z,100151.75
2022-10-13T20:03:04.818Z,100153.59
2022-10-13T20:06:08.274Z,100158.00
2022-10-13T20:09:11.000Z,100158.00
2022-10-13T20:12:13.836Z,100162.78
2022-10-13T20:15:16.526Z,100149.69
2022-10-13T20:18:20.577Z,100155.47
2022-10-13T20:21:23.684Z,100159.28
2022-10-13T20:24:26.565Z,100153.66
2022-10-13T20:27:29.287Z,100151.28
2022-10-13T20:30:32.432Z,100152.34
2022-10-13T20:33:36.433Z,100155.66
2022-10-13T20:36:39.473Z,100149.44
2022-10-13T20:39:42.280Z,100152.50
2022-10-13T20:42:49.594Z,100149.97
2022-10-13T20:45:59.369Z,100147.44
2022-10-13T20:49:12.257Z,100152.63
2022-10-13T20:52:15.542Z,100157.00
2022-10-13T20:55:18.275Z,100163.44
2022-10-13T20:58:20.973Z,100158.50
2022-10-13T21:01:24.048Z,100163.16
2022-10-13T21:04:28.088Z,100159.47
2022-10-13T21:07:30.836Z,100157.47
2022-10-13T21:10:36.549Z,100151.00
2022-10-13T21:13:39.953Z,100154.13
2022-10-13T21:16:42.670Z,100154.53
2022-10-13T21:19:47.755Z,100157.06
2022-10-13T21:22:50.451Z,100151.84
2022-10-13T21:25:53.177Z,100153.41
2022-10-13T21:28:56.256Z,100152.47
2022-10-13T21:31:59.060Z,100147.50
2022-10-13T21:35:03.115Z,100151.84
2022-10-13T21:38:05.726Z,100150.31
2022-10-13T21:41:08.856Z,100153.47
2022-10-13T21:44:13.271Z,100148.97
2022-10-13T21:47:15.953Z,100151.00
2022-10-13T21:50:20.017Z,100153.63
2022-10-13T21:53:22.658Z,100148.00
2022-10-13T21:56:25.679Z,100160.66
2022-10-13T21:59:28.418Z,100162.56
2022-10-13T22:02:31.150Z,100151.38
2022-10-13T22:05:35.632Z,100158.53
2022-10-13T22:08:39.146Z,100157.69
2022-10-13T22:11:42.176Z,100158.97
2022-10-13T22:14:44.846Z,100155.03
2022-10-13T22:17:47.497Z,100155.88
2022-10-13T22:20:51.582Z,100159.38
2022-10-13T22:23:56.855Z,100162.19
2022-10-13T22:26:59.611Z,100159.53
2022-10-13T22:30:02.371Z,100162.47
2022-10-13T22:33:05.213Z,100162.31
2022-10-13T22:36:09.814Z,100167.53
2022-10-13T22:39:12.547Z,100160.78
2022-10-13T22:42:15.230Z,100164.28
2022-10-13T22:45:18.967Z,100165.53
2022-10-13T22:48:21.656Z,100164.53
2022-10-13T22:51:26.570Z,100156.53
2022-10-13T22:54:29.219Z,100160.47
2022-10-13T22:57:31.832Z,100152.69
2022-10-13T23:00:35.346Z,100164.22
2022-10-13T23:03:38.263Z,100167.03
2022-10-13T23:06:42.359Z,100166.50
2022-10-13T23:09:45.040Z,100161.97
2022-10-13T23:12:47.709Z,100162.41
2022-10-13T23:15:50.408Z,100166.03
2022-10-13T23:18:53.147Z,100171.13
2022-10-13T23:21:57.226Z,100171.56
2022-10-13T23:24:59.887Z,100174.50
2022-10-13T23:28:02.660Z,100164.69
2022-10-13T23:31:06.848Z,100166.66
2022-10-13T23:34:09.542Z,100174.75
2022-10-13T23:37:13.507Z,100168.91
2022-10-13T23:40:16.233Z,100167.88
2022-10-13T23:43:19.199Z,100168.16
2022-10-13T23:46:22.018Z,100166.44
2022-10-13T23:49:24.770Z,100169.22
2022-10-13T23:52:28.816Z,100169.22
2022-10-13T23:55:31.447Z,100170.41
2022-10-13T23:58:34.182Z,100165.50
